Portada
METAR-TAF:

METAR-TAF

Aeroports :

Valencia, Veneçuela

latitud: 10-10N, longitud: 067-56W, altitud: 430 m

Observació

L'informe es va fer fa 37 minuts, a les 17:00 UTC
Temperatura 32°C
Humitat 56%
Pressió 1012 hPa
Visibilitat 10 km o més
Núvols disperses a una alçada de 1600 ft

METAR: SVVA 171700Z /////KT 9999 SCT016 32/22 Q1012

Hora: 13:37 (17:37 UTC)

Pronòstic

L'informe es va fer fa 37 minuts, a les 17:00 UTC
Pronòstic vàlid del 17 a les 18 UTC al 18 a les 18 UTC
Vent 4 kt del Nord
Visibilitat 10 km o més
Núvols disperses a una alçada de 1600 ft
Temporalment
l' 17 a les 16 UTC al 17 a les 20 UTC
Vent 4 kt del Nord-Oest
Escasses núvols a una alçada de 1600 ft
Núvols disperses a una alçada de 10000 ft

TAF: SVVA 171700Z 1718/1818 36004KT 9999 SCT016 TX33/1719 TN22/1809 TEMPO 1716/1720 31004KT FEW016 SCT100

Observacions i pronòstics meteorològics de més de 4000 aeroports (METAR i TAF).

Les estacions disponibles són els punts grocs i vermells al mapa.

Posi el ratolí al punt desitjat per veure el nom de l'estació.

Feu clic per veure les observacions i els pronòstics meteorològics.

Per canviar el mapa: feu clic els botons verds amb una creu de color negre per apropar; al botó verd amb un guió per allunyar la imatge; o en les fletxes verdes per a mapes adjacents.


METAR-TAF: